Time;durP1;ratioP1;P1;durP2;ratioP2;P2;SDS_P1;SDS_P2;PMS_P1;PMS_P2;Temp;Humidity;BMP_temperature;BMP_pressure;BME280_temperature;BME280_humidity;BME280_pressure;Samples;Min_cycle;Max_cycle;Signal;HPM_P1;HPM_P2
2023/03/09 00:01:26;;;;;;;5.78;2.80;;;;;;;;;;5066260;28;20048;-83
2023/03/09 00:03:52;;;;;;;5.30;3.20;;;;;;;;;;5083564;28;20063;-82
2023/03/09 00:06:18;;;;;;;4.90;3.00;;;;;;;;;;5048995;28;20413;-83
2023/03/09 00:08:45;;;;;;;5.40;3.20;;;;;;;;;;5065862;28;20036;-83
2023/03/09 00:11:10;;;;;;;6.65;3.35;;;;;;;;;;5065761;28;20116;-83
2023/03/09 00:13:36;;;;;;;5.85;2.95;;;;;;;;;;5063984;28;20033;-83
2023/03/09 00:16:15;;;;;;;7.93;3.70;;;;;;;;;;5082247;28;20044;-82
2023/03/09 00:18:41;;;;;;;6.25;3.10;;;;;;;;;;5047542;28;20555;-82
2023/03/09 00:21:07;;;;;;;7.40;3.60;;;;;;;;;;5064316;28;20709;-82
2023/03/09 00:23:33;;;;;;;6.88;3.20;;;;;;;;;;5048608;28;20024;-82
2023/03/09 00:26:06;;;;;;;6.22;3.10;;;;;;;;;;5081745;28;20039;-83
2023/03/09 00:28:32;;;;;;;5.68;2.90;;;;;;;;;;5081890;28;20044;-83
2023/03/09 00:31:05;;;;;;;6.57;3.30;;;;;;;;;;5082102;28;20078;-82
2023/03/09 00:33:30;;;;;;;6.00;3.22;;;;;;;;;;5081359;28;20043;-81
2023/03/09 00:35:57;;;;;;;7.68;3.17;;;;;;;;;;5064280;28;20115;-82
2023/03/09 00:38:22;;;;;;;5.47;3.20;;;;;;;;;;5047015;28;20043;-82
2023/03/09 00:40:49;;;;;;;7.15;3.58;;;;;;;;;;5063370;28;20033;-81
2023/03/09 00:43:15;;;;;;;5.45;3.40;;;;;;;;;;5063563;28;20070;-82
2023/03/09 00:45:40;;;;;;;9.20;3.55;;;;;;;;;;5063055;28;20044;-83
2023/03/09 00:48:06;;;;;;;5.22;3.20;;;;;;;;;;5063438;28;20412;-83
2023/03/09 00:50:31;;;;;;;5.78;3.50;;;;;;;;;;5047593;28;20097;-82
2023/03/09 00:52:57;;;;;;;6.82;3.33;;;;;;;;;;5062651;28;20047;-82
2023/03/09 00:55:23;;;;;;;5.65;3.22;;;;;;;;;;5062061;28;20036;-83
2023/03/09 00:57:48;;;;;;;6.18;3.40;;;;;;;;;;5063546;28;20143;-83
2023/03/09 01:00:14;;;;;;;7.45;3.78;;;;;;;;;;5063839;28;20401;-83
2023/03/09 01:02:39;;;;;;;6.93;3.67;;;;;;;;;;5053038;28;20651;-83
2023/03/09 01:05:05;;;;;;;7.25;3.50;;;;;;;;;;5058787;28;20029;-82
2023/03/09 01:07:32;;;;;;;10.48;3.60;;;;;;;;;;5058505;28;20044;-81
2023/03/09 01:09:58;;;;;;;6.45;3.33;;;;;;;;;;5043274;28;20033;-81
2023/03/09 01:12:24;;;;;;;7.53;3.70;;;;;;;;;;5061902;28;20048;-83
2023/03/09 01:14:54;;;;;;;7.03;3.22;;;;;;;;;;5058192;28;20028;-81
2023/03/09 01:17:19;;;;;;;7.43;3.33;;;;;;;;;;5042568;28;20039;-82
2023/03/09 01:19:45;;;;;;;4.95;3.22;;;;;;;;;;5042895;28;20056;-81
2023/03/09 01:22:10;;;;;;;5.65;3.05;;;;;;;;;;5026552;28;20071;-82
2023/03/09 01:24:36;;;;;;;6.85;3.13;;;;;;;;;;5057919;28;20093;-82
2023/03/09 01:27:01;;;;;;;7.05;3.55;;;;;;;;;;5043022;28;20413;-82
2023/03/09 01:29:27;;;;;;;7.13;3.25;;;;;;;;;;5060946;28;20080;-81
2023/03/09 01:31:53;;;;;;;4.50;2.90;;;;;;;;;;5026096;28;20040;-82
2023/03/09 01:34:19;;;;;;;6.25;3.22;;;;;;;;;;5025536;28;20029;-81
2023/03/09 01:36:44;;;;;;;7.88;3.60;;;;;;;;;;5061690;28;20512;-80
2023/03/09 01:39:11;;;;;;;4.65;3.00;;;;;;;;;;5043642;28;20035;-82
2023/03/09 01:41:36;;;;;;;6.00;3.05;;;;;;;;;;5044316;28;20147;-82
2023/03/09 01:44:02;;;;;;;6.40;2.80;;;;;;;;;;5027454;28;20465;-81
2023/03/09 01:46:37;;;;;;;4.30;2.70;;;;;;;;;;5062060;28;20044;-82
2023/03/09 01:49:23;;;;;;;7.07;2.90;;;;;;;;;;5046382;28;20091;-83
2023/03/09 01:52:04;;;;;;;4.57;3.00;;;;;;;;;;5046910;28;20036;-83
2023/03/09 01:54:33;;;;;;;5.45;3.03;;;;;;;;;;5029534;28;20025;-83
2023/03/09 01:57:05;;;;;;;5.65;3.15;;;;;;;;;;5046515;28;20029;-83
2023/03/09 01:59:33;;;;;;;5.75;2.95;;;;;;;;;;5046603;28;20069;-82
2023/03/09 02:02:00;;;;;;;4.85;2.85;;;;;;;;;;5045831;28;20048;-82
2023/03/09 02:04:33;;;;;;;7.53;2.85;;;;;;;;;;5045686;28;20029;-82
2023/03/09 02:06:59;;;;;;;5.57;3.00;;;;;;;;;;5046591;28;20037;-82
2023/03/09 02:09:44;;;;;;;4.75;2.47;;;;;;;;;;5045226;28;20039;-82
2023/03/09 02:12:12;;;;;;;;;;;;;;;;;;5029826;28;20094;-83
2023/03/09 02:14:38;;;;;;;4.60;2.63;;;;;;;;;;5045000;28;19924;-82
2023/03/09 02:17:03;;;;;;;4.78;2.42;;;;;;;;;;5064190;28;20028;-83
2023/03/09 02:20:04;;;;;;;4.97;2.47;;;;;;;;;;5028646;28;20378;-82
2023/03/09 02:22:36;;;;;;;4.13;2.45;;;;;;;;;;5056735;28;20142;-83
2023/03/09 02:25:27;;;;;;;5.07;2.90;;;;;;;;;;5056213;23;20112;-85
2023/03/09 02:27:54;;;;;;;5.97;2.90;;;;;;;;;;5056655;28;20056;-85
2023/03/09 02:30:20;;;;;;;5.57;2.60;;;;;;;;;;5057496;28;20426;-84
2023/03/09 02:32:46;;;;;;;5.20;2.53;;;;;;;;;;5057544;28;20047;-84
2023/03/09 02:35:12;;;;;;;3.80;2.60;;;;;;;;;;5037728;28;20029;-85
2023/03/09 02:37:43;;;;;;;5.18;2.60;;;;;;;;;;5038098;28;20037;-86
2023/03/09 02:40:31;;;;;;;4.28;2.63;;;;;;;;;;5054600;28;20025;-85
2023/03/09 02:43:02;;;;;;;6.00;2.65;;;;;;;;;;5038084;28;20033;-85
2023/03/09 02:45:29;;;;;;;6.60;2.60;;;;;;;;;;5054438;28;20029;-84
2023/03/09 02:47:56;;;;;;;4.40;2.80;;;;;;;;;;5055472;28;20051;-85
2023/03/09 02:50:22;;;;;;;5.68;2.47;;;;;;;;;;5055228;28;20033;-85
2023/03/09 02:52:48;;;;;;;4.95;2.38;;;;;;;;;;5057072;28;20051;-84
2023/03/09 02:55:14;;;;;;;4.85;2.78;;;;;;;;;;5055621;28;20029;-87
2023/03/09 02:57:41;;;;;;;4.15;2.20;;;;;;;;;;5038694;28;20106;-86
2023/03/09 03:00:09;;;;;;;4.35;2.42;;;;;;;;;;5039302;28;20493;-84
2023/03/09 03:02:35;;;;;;;4.35;2.40;;;;;;;;;;5039350;28;20028;-85
2023/03/09 03:05:01;;;;;;;4.47;2.40;;;;;;;;;;5052463;28;20056;-85
2023/03/09 03:07:27;;;;;;;5.63;2.40;;;;;;;;;;5035976;28;20040;-84
2023/03/09 03:09:52;;;;;;;3.75;2.20;;;;;;;;;;5052721;28;20033;-85
2023/03/09 03:12:18;;;;;;;5.57;2.10;;;;;;;;;;5035829;28;20147;-83
2023/03/09 03:14:44;;;;;;;4.13;2.10;;;;;;;;;;5035549;28;20029;-84
2023/03/09 03:17:13;;;;;;;3.75;2.30;;;;;;;;;;5035796;28;20037;-85
2023/03/09 03:19:39;;;;;;;3.55;2.22;;;;;;;;;;5061814;28;20055;-84
2023/03/09 03:22:05;;;;;;;4.10;2.10;;;;;;;;;;5039983;28;20047;-84
2023/03/09 03:24:36;;;;;;;3.72;2.05;;;;;;;;;;5052820;28;20025;-83
2023/03/09 03:27:02;;;;;;;5.90;2.42;;;;;;;;;;5037679;28;20444;-84
2023/03/09 03:29:28;;;;;;;4.38;2.58;;;;;;;;;;5053450;28;20508;-84
2023/03/09 03:31:53;;;;;;;5.80;2.60;;;;;;;;;;5036497;28;20082;-83
2023/03/09 03:34:21;;;;;;;6.78;2.42;;;;;;;;;;5037190;28;20040;-83
2023/03/09 03:36:48;;;;;;;3.80;2.35;;;;;;;;;;5037489;28;20033;-85
2023/03/09 03:39:14;;;;;;;3.55;2.15;;;;;;;;;;5054308;28;20037;-85
2023/03/09 03:41:40;;;;;;;7.13;2.13;;;;;;;;;;5054095;28;20071;-85
2023/03/09 03:44:09;;;;;;;4.38;2.35;;;;;;;;;;5053092;28;20021;-86
2023/03/09 03:46:36;;;;;;;5.43;2.60;;;;;;;;;;5037398;28;20033;-86
2023/03/09 03:49:02;;;;;;;5.63;2.53;;;;;;;;;;5055880;28;20047;-86
2023/03/09 03:51:30;;;;;;;3.78;2.50;;;;;;;;;;5056233;28;20492;-85
2023/03/09 03:53:57;;;;;;;3.35;2.22;;;;;;;;;;5055131;28;20039;-83
2023/03/09 03:56:23;;;;;;;5.78;2.40;;;;;;;;;;5038398;28;20033;-84
2023/03/09 03:58:50;;;;;;;4.85;2.53;;;;;;;;;;5055334;28;20065;-84
2023/03/09 04:01:17;;;;;;;4.97;2.35;;;;;;;;;;5038794;28;20032;-84
2023/03/09 04:03:45;;;;;;;3.90;2.40;;;;;;;;;;5038883;28;20104;-85
2023/03/09 04:06:12;;;;;;;4.65;2.67;;;;;;;;;;5051026;28;20029;-86
2023/03/09 04:08:37;;;;;;;4.97;2.17;;;;;;;;;;5035631;28;20037;-85
2023/03/09 04:11:08;;;;;;;4.32;2.50;;;;;;;;;;5035108;28;20094;-85
2023/03/09 04:13:36;;;;;;;3.88;2.10;;;;;;;;;;5034628;28;20493;-86
2023/03/09 04:16:02;;;;;;;4.50;2.10;;;;;;;;;;5050995;28;20040;-85
2023/03/09 04:18:28;;;;;;;4.75;2.33;;;;;;;;;;5053375;28;20159;-84
2023/03/09 04:20:53;;;;;;;6.35;2.65;;;;;;;;;;5054152;28;20032;-86
2023/03/09 04:23:19;;;;;;;5.47;2.58;;;;;;;;;;5051131;28;20040;-85
2023/03/09 04:25:57;;;;;;;5.80;2.83;;;;;;;;;;5050684;28;20107;-85
2023/03/09 04:28:28;;;;;;;4.45;2.47;;;;;;;;;;5050920;28;20131;-85
2023/03/09 04:30:55;;;;;;;5.90;2.50;;;;;;;;;;5050936;28;20087;-85
2023/03/09 04:33:22;;;;;;;4.95;2.60;;;;;;;;;;5050856;28;20024;-85
2023/03/09 04:35:47;;;;;;;3.90;2.50;;;;;;;;;;5063752;28;20051;-84
2023/03/09 04:38:19;;;;;;;5.05;2.40;;;;;;;;;;5038694;28;20083;-85
2023/03/09 04:40:47;;;;;;;4.60;2.30;;;;;;;;;;5055350;28;20043;-85
2023/03/09 04:43:13;;;;;;;5.72;2.30;;;;;;;;;;5054371;28;20469;-85
2023/03/09 04:45:38;;;;;;;4.65;2.28;;;;;;;;;;5038874;28;20053;-85
2023/03/09 04:48:04;;;;;;;5.20;2.75;;;;;;;;;;5057014;28;20416;-85
2023/03/09 04:50:30;;;;;;;5.70;2.67;;;;;;;;;;5039808;28;20079;-87
2023/03/09 04:52:59;;;;;;;5.75;2.72;;;;;;;;;;5040145;28;20036;-84
2023/03/09 04:55:26;;;;;;;4.78;2.70;;;;;;;;;;5039972;28;20032;-85
2023/03/09 04:57:55;;;;;;;5.90;2.95;;;;;;;;;;5039087;28;20033;-85
2023/03/09 05:00:23;;;;;;;6.10;2.97;;;;;;;;;;5056936;28;20124;-85
2023/03/09 05:02:49;;;;;;;5.95;3.13;;;;;;;;;;5056258;28;20033;-87
2023/03/09 05:05:16;;;;;;;4.68;2.63;;;;;;;;;;5057274;28;20432;-84
2023/03/09 05:07:42;;;;;;;7.07;3.00;;;;;;;;;;5052362;28;20048;-85
2023/03/09 05:10:09;;;;;;;6.43;3.10;;;;;;;;;;5052496;28;20170;-84
2023/03/09 05:12:38;;;;;;;5.25;2.70;;;;;;;;;;5035718;28;20116;-85
2023/03/09 05:15:08;;;;;;;6.32;2.88;;;;;;;;;;5034826;28;20065;-84
2023/03/09 05:17:35;;;;;;;5.50;2.90;;;;;;;;;;5050465;28;20029;-85
2023/03/09 05:20:04;;;;;;;4.50;2.83;;;;;;;;;;5050684;28;20126;-84
2023/03/09 05:22:29;;;;;;;4.20;2.78;;;;;;;;;;5050402;28;20036;-83
2023/03/09 05:24:56;;;;;;;5.75;2.70;;;;;;;;;;5050578;28;20021;-86
2023/03/09 05:27:22;;;;;;;5.70;3.00;;;;;;;;;;5034650;28;20523;-85
2023/03/09 05:29:51;;;;;;;4.18;2.53;;;;;;;;;;5051966;28;20036;-84
2023/03/09 05:32:17;;;;;;;3.70;2.55;;;;;;;;;;5050508;28;20405;-83
2023/03/09 05:34:46;;;;;;;5.85;2.53;;;;;;;;;;5050044;28;20116;-83
2023/03/09 05:37:11;;;;;;;4.22;2.50;;;;;;;;;;5034005;28;20416;-84
2023/03/09 05:39:37;;;;;;;5.05;2.42;;;;;;;;;;5050322;28;20513;-84
2023/03/09 05:42:03;;;;;;;3.33;1.92;;;;;;;;;;5033735;28;20037;-85
2023/03/09 05:44:33;;;;;;;3.13;2.20;;;;;;;;;;5054408;28;20048;-86
2023/03/09 05:46:58;;;;;;;3.33;1.98;;;;;;;;;;5038153;28;20493;-86
2023/03/09 05:49:27;;;;;;;4.45;2.20;;;;;;;;;;5043687;28;20037;-85
2023/03/09 05:51:54;;;;;;;4.45;2.10;;;;;;;;;;5056544;28;20041;-85
2023/03/09 05:54:22;;;;;;;3.50;2.10;;;;;;;;;;5056505;28;20033;-85
2023/03/09 05:56:48;;;;;;;3.50;2.17;;;;;;;;;;5058757;28;20033;-85
2023/03/09 05:59:15;;;;;;;4.90;2.50;;;;;;;;;;5058289;28;20033;-84
2023/03/09 06:01:42;;;;;;;5.93;2.60;;;;;;;;;;5041936;28;20604;-84
2023/03/09 06:04:20;;;;;;;7.07;2.75;;;;;;;;;;5060313;28;20021;-83
2023/03/09 06:06:51;;;;;;;6.22;3.38;;;;;;;;;;5061551;28;20063;-86
2023/03/09 06:09:19;;;;;;;6.90;3.10;;;;;;;;;;5057341;28;20033;-84
2023/03/09 06:11:44;;;;;;;4.00;2.47;;;;;;;;;;5041450;28;20067;-85
2023/03/09 06:14:10;;;;;;;4.78;2.75;;;;;;;;;;5057317;28;20049;-85
2023/03/09 06:16:40;;;;;;;5.82;2.75;;;;;;;;;;5057399;28;20044;-84
2023/03/09 06:19:06;;;;;;;5.70;3.13;;;;;;;;;;5057194;28;20041;-85
2023/03/09 06:21:33;;;;;;;5.38;2.90;;;;;;;;;;5040178;28;20370;-84
2023/03/09 06:24:01;;;;;;;3.28;1.63;;;;;;;;;;5039668;28;20037;-86
2023/03/09 06:26:27;;;;;;;3.08;1.50;;;;;;;;;;5039977;28;20041;-86
2023/03/09 06:28:58;;;;;;;3.50;1.10;;;;;;;;;;5056708;28;20397;-84
2023/03/09 06:31:23;;;;;;;3.40;1.00;;;;;;;;;;5055400;28;20033;-84
2023/03/09 06:33:52;;;;;;;2.03;0.80;;;;;;;;;;5054712;28;20025;-85
2023/03/09 06:36:19;;;;;;;1.40;0.90;;;;;;;;;;5038051;28;20094;-84
2023/03/09 06:38:48;;;;;;;0.98;0.47;;;;;;;;;;5038393;28;20036;-84
2023/03/09 06:41:15;;;;;;;1.00;0.55;;;;;;;;;;5055142;28;20040;-85
2023/03/09 06:43:45;;;;;;;0.95;0.40;;;;;;;;;;5055513;28;20150;-85
2023/03/09 06:46:10;;;;;;;0.40;0.40;;;;;;;;;;5055273;28;20516;-85
2023/03/09 06:48:37;;;;;;;1.02;0.38;;;;;;;;;;5039096;28;20048;-84
2023/03/09 06:51:02;;;;;;;0.30;0.20;;;;;;;;;;5056435;28;20035;-84
2023/03/09 06:53:29;;;;;;;7.47;0.40;;;;;;;;;;5056069;28;20029;-84
2023/03/09 06:56:01;;;;;;;0.30;0.17;;;;;;;;;;5054514;28;20548;-84
2023/03/09 06:58:32;;;;;;;0.17;0.15;;;;;;;;;;5056213;28;20037;-84
2023/03/09 07:00:58;;;;;;;0.10;0.10;;;;;;;;;;5040085;28;20120;-84
2023/03/09 07:03:24;;;;;;;0.10;0.10;;;;;;;;;;5039629;28;20036;-85
2023/03/09 07:05:50;;;;;;;0.00;0.00;;;;;;;;;;5040658;28;20392;-85
2023/03/09 07:08:15;;;;;;;0.00;0.00;;;;;;;;;;5044368;28;20029;-86
2023/03/09 07:10:41;;;;;;;0.75;0.10;;;;;;;;;;5055508;28;20052;-85
2023/03/09 07:13:12;;;;;;;0.47;0.17;;;;;;;;;;5055834;28;20033;-85
2023/03/09 07:15:38;;;;;;;0.10;0.10;;;;;;;;;;5056020;28;20048;-85
2023/03/09 07:18:03;;;;;;;1.13;0.20;;;;;;;;;;5057764;28;20497;-86
2023/03/09 07:20:29;;;;;;;0.90;0.10;;;;;;;;;;5057964;28;20033;-83
2023/03/09 07:22:54;;;;;;;0.80;0.10;;;;;;;;;;5056593;28;20041;-84
2023/03/09 07:25:20;;;;;;;0.10;0.10;;;;;;;;;;5054763;28;20033;-84
2023/03/09 07:27:47;;;;;;;0.17;0.03;;;;;;;;;;5056522;28;20405;-84
2023/03/09 07:30:13;;;;;;;0.10;0.10;;;;;;;;;;5055867;28;20065;-85
2023/03/09 07:32:39;;;;;;;0.20;0.03;;;;;;;;;;5057048;28;20038;-85
2023/03/09 07:35:05;;;;;;;0.00;0.00;;;;;;;;;;5053251;28;20128;-85
2023/03/09 07:37:30;;;;;;;0.38;0.00;;;;;;;;;;5054573;28;20125;-83
2023/03/09 07:39:56;;;;;;;0.30;0.10;;;;;;;;;;5054971;28;20062;-83
2023/03/09 07:42:21;;;;;;;0.00;0.00;;;;;;;;;;5055242;28;20417;-85
2023/03/09 07:45:01;;;;;;;0.03;0.00;;;;;;;;;;5038450;28;20029;-85
2023/03/09 07:47:27;;;;;;;0.10;0.00;;;;;;;;;;5057215;28;20108;-82
2023/03/09 07:49:52;;;;;;;0.00;0.00;;;;;;;;;;5056586;28;20037;-83
2023/03/09 07:52:18;;;;;;;0.03;0.00;;;;;;;;;;5057378;28;20025;-82
2023/03/09 07:54:43;;;;;;;0.00;0.00;;;;;;;;;;5056561;28;20033;-84
2023/03/09 07:57:08;;;;;;;0.22;0.10;;;;;;;;;;5058383;28;20033;-83
2023/03/09 07:59:34;;;;;;;0.65;0.10;;;;;;;;;;5057151;28;20158;-83
2023/03/09 08:01:59;;;;;;;0.22;0.20;;;;;;;;;;5040573;28;20520;-84
2023/03/09 08:04:25;;;;;;;1.10;0.60;;;;;;;;;;5056837;28;20040;-84
2023/03/09 08:06:51;;;;;;;0.88;0.28;;;;;;;;;;5057810;28;20041;-85
2023/03/09 08:09:17;;;;;;;0.20;0.20;;;;;;;;;;5044053;28;20043;-82
2023/03/09 08:11:45;;;;;;;0.13;0.13;;;;;;;;;;5053369;28;20104;-83
2023/03/09 08:14:11;;;;;;;1.02;0.60;;;;;;;;;;5053299;28;20033;-82
2023/03/09 08:16:37;;;;;;;1.42;0.35;;;;;;;;;;5053233;28;20036;-81
2023/03/09 08:19:03;;;;;;;0.20;0.10;;;;;;;;;;5055557;28;20067;-81
2023/03/09 08:21:28;;;;;;;0.82;0.15;;;;;;;;;;5055816;28;20074;-84
2023/03/09 08:23:54;;;;;;;0.40;0.17;;;;;;;;;;5055125;28;20397;-84
2023/03/09 08:26:19;;;;;;;0.65;0.20;;;;;;;;;;5054836;28;20045;-84
2023/03/09 08:28:45;;;;;;;1.30;0.20;;;;;;;;;;5055388;28;20576;-83
2023/03/09 08:31:16;;;;;;;1.58;0.30;;;;;;;;;;5054808;28;20044;-82
2023/03/09 08:33:42;;;;;;;0.88;0.30;;;;;;;;;;5055183;28;20041;-84
2023/03/09 08:36:16;;;;;;;1.98;0.40;;;;;;;;;;5053704;28;20035;-85
2023/03/09 08:38:44;;;;;;;1.02;0.50;;;;;;;;;;5081697;22;20044;-83
2023/03/09 08:41:09;;;;;;;2.08;0.30;;;;;;;;;;5082890;28;20021;-84
2023/03/09 08:43:35;;;;;;;3.55;0.60;;;;;;;;;;5082779;28;20047;-80
2023/03/09 08:46:01;;;;;;;1.85;0.45;;;;;;;;;;5064000;28;20492;-80
2023/03/09 08:48:27;;;;;;;3.15;0.60;;;;;;;;;;5081317;28;20458;-80
2023/03/09 08:50:53;;;;;;;3.63;0.60;;;;;;;;;;5081670;28;20043;-80
2023/03/09 08:53:18;;;;;;;3.20;0.63;;;;;;;;;;5064025;28;20028;-84
2023/03/09 08:55:45;;;;;;;3.13;0.65;;;;;;;;;;5062819;28;20057;-83
2023/03/09 08:58:11;;;;;;;3.25;0.73;;;;;;;;;;5063884;28;20043;-82
2023/03/09 09:00:37;;;;;;;3.80;0.60;;;;;;;;;;5063831;28;20032;-83
2023/03/09 09:03:03;;;;;;;2.95;0.60;;;;;;;;;;5081971;28;20032;-83
2023/03/09 09:05:29;;;;;;;1.77;0.63;;;;;;;;;;5063613;28;20191;-83
2023/03/09 09:07:54;;;;;;;3.00;0.70;;;;;;;;;;5081004;28;20536;-83
2023/03/09 09:10:20;;;;;;;5.60;1.10;;;;;;;;;;5063057;28;20091;-84
2023/03/09 09:12:45;;;;;;;3.08;0.93;;;;;;;;;;5064477;28;20512;-83
2023/03/09 09:15:13;;;;;;;2.20;0.63;;;;;;;;;;5082340;28;20043;-83
2023/03/09 09:17:39;;;;;;;4.45;0.88;;;;;;;;;;5083737;28;20047;-84
2023/03/09 09:20:06;;;;;;;4.45;0.88;;;;;;;;;;5064194;28;20032;-82
2023/03/09 09:22:32;;;;;;;4.97;0.70;;;;;;;;;;5082872;28;20062;-84
2023/03/09 09:24:58;;;;;;;3.70;0.95;;;;;;;;;;5081628;28;20537;-84
2023/03/09 09:27:25;;;;;;;2.72;1.15;;;;;;;;;;5083005;28;20497;-85
2023/03/09 09:29:52;;;;;;;5.35;1.05;;;;;;;;;;5066846;28;20050;-84
2023/03/09 09:32:19;;;;;;;2.53;0.85;;;;;;;;;;5087513;28;20027;-84
2023/03/09 09:34:44;;;;;;;2.92;0.63;;;;;;;;;;5067871;28;20094;-84
2023/03/09 09:37:11;;;;;;;2.92;0.68;;;;;;;;;;5069518;28;20036;-84
2023/03/09 09:39:38;;;;;;;2.97;0.47;;;;;;;;;;5069028;28;20033;-84
2023/03/09 09:42:11;;;;;;;1.90;0.57;;;;;;;;;;5086519;28;20028;-84
2023/03/09 09:44:50;;;;;;;3.03;0.70;;;;;;;;;;5087602;28;20044;-84
2023/03/09 09:47:24;;;;;;;4.45;0.68;;;;;;;;;;5087062;28;20442;-84
2023/03/09 09:49:52;;;;;;;3.33;0.88;;;;;;;;;;5086158;28;20044;-82
2023/03/09 09:52:50;;;;;;;1.50;0.60;;;;;;;;;;5068377;28;20033;-84
2023/03/09 09:55:22;;;;;;;2.83;0.50;;;;;;;;;;5016150;28;20075;-83
2023/03/09 09:58:15;;;;;;;2.05;0.50;;;;;;;;;;5083948;28;20070;-83
2023/03/09 10:00:44;;;;;;;4.32;0.70;;;;;;;;;;5065118;28;20037;-87
2023/03/09 10:03:22;;;;;;;3.95;0.50;;;;;;;;;;5029384;28;20033;-82
2023/03/09 10:05:53;;;;;;;2.05;0.50;;;;;;;;;;5028695;28;20044;-83
2023/03/09 10:08:22;;;;;;;2.83;0.50;;;;;;;;;;5064901;28;20037;-84
2023/03/09 10:10:50;;;;;;;1.85;0.77;;;;;;;;;;5065086;28;20083;-83
2023/03/09 10:13:32;;;;;;;0.80;0.50;;;;;;;;;;5046769;28;20041;-84
2023/03/09 10:16:02;;;;;;;4.03;0.40;;;;;;;;;;5046390;28;20037;-83
2023/03/09 10:18:39;;;;;;;1.85;0.40;;;;;;;;;;5064830;28;20107;-81
2023/03/09 10:21:14;;;;;;;2.80;0.60;;;;;;;;;;5062891;28;20032;-83
2023/03/09 10:23:42;;;;;;;2.42;0.50;;;;;;;;;;5063793;28;20036;-82
2023/03/09 10:26:11;;;;;;;1.38;0.30;;;;;;;;;;5045731;28;20029;-82
2023/03/09 10:28:42;;;;;;;1.13;0.43;;;;;;;;;;5068082;28;20033;-83
2023/03/09 10:31:22;;;;;;;1.60;0.32;;;;;;;;;;5049797;28;20059;-83
2023/03/09 10:33:53;;;;;;;1.45;0.30;;;;;;;;;;5033604;28;20397;-83
2023/03/09 10:36:28;;;;;;;1.58;0.57;;;;;;;;;;5046643;28;20032;-82
2023/03/09 10:38:56;;;;;;;0.30;0.20;;;;;;;;;;5048267;28;20040;-84
2023/03/09 10:41:22;;;;;;;0.63;0.20;;;;;;;;;;5067469;28;20045;-84
2023/03/09 10:43:48;;;;;;;0.77;0.30;;;;;;;;;;5067649;28;20051;-84
2023/03/09 10:46:22;;;;;;;0.57;0.20;;;;;;;;;;5049078;28;20509;-82
2023/03/09 10:49:07;;;;;;;0.68;0.22;;;;;;;;;;5049620;28;20033;-84
2023/03/09 10:51:41;;;;;;;0.60;0.30;;;;;;;;;;5048288;28;20516;-83
2023/03/09 10:54:28;;;;;;;2.08;0.30;;;;;;;;;;5048394;28;20047;-82
2023/03/09 10:56:54;;;;;;;1.00;0.40;;;;;;;;;;5030695;28;20072;-82
2023/03/09 10:59:22;;;;;;;1.52;0.40;;;;;;;;;;5031040;28;20024;-82
2023/03/09 11:01:51;;;;;;;0.73;0.40;;;;;;;;;;5046581;28;20060;-82
2023/03/09 11:04:23;;;;;;;0.77;0.40;;;;;;;;;;5044998;28;20131;-83
2023/03/09 11:06:51;;;;;;;2.25;0.50;;;;;;;;;;5063197;28;20090;-80
2023/03/09 11:09:31;;;;;;;1.27;0.38;;;;;;;;;;5046580;28;20098;-81
2023/03/09 11:12:17;;;;;;;0.90;0.40;;;;;;;;;;5063346;28;20116;-81
2023/03/09 11:15:04;;;;;;;0.95;0.40;;;;;;;;;;5063926;28;20029;-81
2023/03/09 11:17:38;;;;;;;1.00;0.40;;;;;;;;;;5046202;28;20036;-82
2023/03/09 11:20:30;;;;;;;1.10;0.47;;;;;;;;;;5061364;28;20037;-81
2023/03/09 11:23:15;;;;;;;2.22;0.50;;;;;;;;;;5027357;28;20447;-82
2023/03/09 11:25:57;;;;;;;2.75;0.50;;;;;;;;;;5027747;28;20036;-82
2023/03/09 11:28:29;;;;;;;1.13;0.40;;;;;;;;;;5048929;28;20037;-82
2023/03/09 11:30:56;;;;;;;1.52;0.45;;;;;;;;;;5047343;28;20097;-82
2023/03/09 11:33:24;;;;;;;1.27;0.68;;;;;;;;;;5063509;28;20120;-82
2023/03/09 11:35:53;;;;;;;1.05;0.60;;;;;;;;;;5044659;28;20082;-83
2023/03/09 11:38:19;;;;;;;2.58;0.60;;;;;;;;;;5027167;28;20036;-83
2023/03/09 11:40:47;;;;;;;1.30;0.40;;;;;;;;;;5064410;28;20029;-82
2023/03/09 11:43:36;;;;;;;1.58;0.40;;;;;;;;;;5066042;28;20135;-83
2023/03/09 11:46:06;;;;;;;1.25;0.57;;;;;;;;;;5046579;28;20043;-83
2023/03/09 11:48:46;;;;;;;2.72;0.50;;;;;;;;;;5046847;28;20397;-82
2023/03/09 11:51:17;;;;;;;1.45;0.50;;;;;;;;;;5046424;28;20044;-82
2023/03/09 11:54:02;;;;;;;3.08;0.50;;;;;;;;;;5046845;28;20065;-82
2023/03/09 11:56:34;;;;;;;1.63;0.50;;;;;;;;;;5063997;28;20036;-81
2023/03/09 11:59:12;;;;;;;1.73;0.60;;;;;;;;;;5047416;28;20033;-82
2023/03/09 12:01:44;;;;;;;0.80;0.50;;;;;;;;;;5047098;28;20128;-83
2023/03/09 12:04:15;;;;;;;1.33;0.60;;;;;;;;;;5046406;28;20037;-83
2023/03/09 12:06:43;;;;;;;1.85;0.50;;;;;;;;;;5046425;28;20052;-82
2023/03/09 12:09:35;;;;;;;2.28;0.60;;;;;;;;;;5045720;28;20052;-83
2023/03/09 12:12:33;;;;;;;2.05;0.70;;;;;;;;;;5038720;28;20044;-82
2023/03/09 12:15:36;;;;;;;2.47;0.40;;;;;;;;;;5047225;28;20156;-84
2023/03/09 12:18:06;;;;;;;1.35;0.50;;;;;;;;;;5027368;28;20051;-83
2023/03/09 12:20:36;;;;;;;1.10;0.50;;;;;;;;;;5046575;28;20040;-81
2023/03/09 12:23:02;;;;;;;0.95;0.40;;;;;;;;;;5064230;28;20053;-82
2023/03/09 12:25:28;;;;;;;1.60;0.50;;;;;;;;;;5029449;28;20095;-82
2023/03/09 12:27:57;;;;;;;3.33;0.50;;;;;;;;;;5045935;28;20056;-82
2023/03/09 12:30:33;;;;;;;1.48;0.55;;;;;;;;;;5045099;28;20052;-82
2023/03/09 12:33:01;;;;;;;1.85;0.65;;;;;;;;;;5027509;28;20044;-82
2023/03/09 12:35:26;;;;;;;1.55;0.60;;;;;;;;;;5063105;28;20030;-81
2023/03/09 12:37:57;;;;;;;2.22;0.40;;;;;;;;;;5063227;28;20068;-83
2023/03/09 12:40:26;;;;;;;1.48;0.57;;;;;;;;;;5064834;28;20040;-82
2023/03/09 12:42:54;;;;;;;1.88;0.65;;;;;;;;;;5046189;28;20076;-83
2023/03/09 12:45:29;;;;;;;3.10;1.00;;;;;;;;;;5063582;28;20037;-82
2023/03/09 12:47:57;;;;;;;2.95;0.80;;;;;;;;;;5063102;28;20043;-82
2023/03/09 12:50:25;;;;;;;2.53;0.60;;;;;;;;;;5063082;28;20037;-82
2023/03/09 12:52:53;;;;;;;1.05;0.35;;;;;;;;;;5062476;28;20036;-82
2023/03/09 12:55:24;;;;;;;2.50;0.75;;;;;;;;;;5062073;28;20064;-81
2023/03/09 12:58:11;;;;;;;1.35;0.63;;;;;;;;;;5060371;28;20068;-81
2023/03/09 13:00:52;;;;;;;2.35;0.70;;;;;;;;;;5041805;28;20048;-82
2023/03/09 13:03:40;;;;;;;2.42;0.68;;;;;;;;;;5025152;28;20036;-82
2023/03/09 13:06:22;;;;;;;1.75;0.60;;;;;;;;;;5057953;28;20052;-83
2023/03/09 13:08:56;;;;;;;1.30;0.40;;;;;;;;;;5060209;28;20056;-81
2023/03/09 13:11:25;;;;;;;1.45;0.50;;;;;;;;;;5061819;28;20040;-81
2023/03/09 13:14:09;;;;;;;1.70;0.52;;;;;;;;;;5063264;28;20033;-82
2023/03/09 13:16:37;;;;;;;1.88;0.70;;;;;;;;;;5062268;28;20033;-80
2023/03/09 13:19:16;;;;;;;;;;;;;;;;;;;;;
2023/03/09 13:21:53;;;;;;;1.35;0.50;;;;;;;;;;5062271;28;20113;-82
2023/03/09 13:24:35;;;;;;;1.42;0.43;;;;;;;;;;5043940;28;20804;-82
2023/03/09 13:27:10;;;;;;;1.35;0.50;;;;;;;;;;5042910;28;20135;-80
2023/03/09 13:29:39;;;;;;;1.45;0.57;;;;;;;;;;5045017;28;20032;-80
2023/03/09 13:32:16;;;;;;;1.40;0.60;;;;;;;;;;5061815;28;20028;-80
2023/03/09 13:34:45;;;;;;;2.72;0.70;;;;;;;;;;5061895;28;20040;-81
2023/03/09 13:37:17;;;;;;;3.83;0.80;;;;;;;;;;5043542;28;20037;-81
2023/03/09 13:40:08;;;;;;;2.53;0.70;;;;;;;;;;5043086;28;20029;-81
2023/03/09 13:42:37;;;;;;;1.38;0.47;;;;;;;;;;5061697;28;20040;-81
2023/03/09 13:45:04;;;;;;;3.80;0.70;;;;;;;;;;5061248;28;20041;-83
2023/03/09 13:47:32;;;;;;;1.45;0.50;;;;;;;;;;5062170;28;20043;-82
2023/03/09 13:49:59;;;;;;;2.20;0.73;;;;;;;;;;5042105;28;20098;-83
2023/03/09 13:52:26;;;;;;;1.35;0.60;;;;;;;;;;5057783;28;20048;-83
2023/03/09 13:55:00;;;;;;;2.33;0.60;;;;;;;;;;5058118;28;20491;-83
2023/03/09 13:57:34;;;;;;;2.88;0.70;;;;;;;;;;5057985;28;20033;-82
2023/03/09 14:00:19;;;;;;;1.63;0.70;;;;;;;;;;5039155;28;20118;-83
2023/03/09 14:02:45;;;;;;;2.03;0.60;;;;;;;;;;5023099;28;20037;-83
2023/03/09 14:05:13;;;;;;;1.58;0.60;;;;;;;;;;5056594;28;20029;-83
2023/03/09 14:07:45;;;;;;;3.28;0.70;;;;;;;;;;5039569;28;20037;-81
2023/03/09 14:10:25;;;;;;;2.47;0.80;;;;;;;;;;5056972;28;20045;-82
2023/03/09 14:12:58;;;;;;;1.90;0.60;;;;;;;;;;5059606;28;20044;-83
2023/03/09 14:15:24;;;;;;;2.20;0.77;;;;;;;;;;5061611;28;20041;-83
2023/03/09 14:17:51;;;;;;;3.80;0.90;;;;;;;;;;5045004;28;20060;-83
2023/03/09 14:20:33;;;;;;;3.30;0.90;;;;;;;;;;5063257;28;20033;-82
2023/03/09 14:23:30;;;;;;;2.70;0.80;;;;;;;;;;5045263;28;20040;-82
2023/03/09 14:25:57;;;;;;;5.88;0.70;;;;;;;;;;5045517;28;20029;-83
2023/03/09 14:28:24;;;;;;;2.50;0.70;;;;;;;;;;5063038;28;20201;-82
2023/03/09 14:30:50;;;;;;;2.50;0.80;;;;;;;;;;5066598;28;20040;-83
2023/03/09 14:33:24;;;;;;;3.05;0.70;;;;;;;;;;5066344;28;20036;-83
2023/03/09 14:36:03;;;;;;;3.63;0.80;;;;;;;;;;5066003;28;20036;-83
2023/03/09 14:38:28;;;;;;;2.90;0.70;;;;;;;;;;5066730;28;20397;-83
2023/03/09 14:41:12;;;;;;;3.47;0.80;;;;;;;;;;5070005;23;20052;-80
2023/03/09 14:43:43;;;;;;;2.53;0.60;;;;;;;;;;5078248;28;20070;-84
2023/03/09 14:46:24;;;;;;;1.27;0.60;;;;;;;;;;5059403;28;20040;-85
2023/03/09 14:48:58;;;;;;;2.42;0.93;;;;;;;;;;5060114;28;20044;-85
2023/03/09 14:51:24;;;;;;;;;;;;;;;;;;5078031;28;20044;-82
2023/03/09 14:54:01;;;;;;;2.45;0.77;;;;;;;;;;5077173;28;20057;-86
2023/03/09 14:56:29;;;;;;;2.95;0.70;;;;;;;;;;5059211;28;20484;-84
2023/03/09 14:58:54;;;;;;;2.88;0.80;;;;;;;;;;5077983;28;20075;-84
2023/03/09 15:01:21;;;;;;;3.63;0.77;;;;;;;;;;5079313;28;20054;-84